Time;durP1;ratioP1;P1;durP2;ratioP2;P2;SDS_P1;SDS_P2;PMS_P1;PMS_P2;Temp;Humidity;BMP_temperature;BMP_pressure;BME280_temperature;BME280_humidity;BME280_pressure;Samples;Min_cycle;Max_cycle;Signal;HPM_P1;HPM_P2
2023/05/10 04:06:32;;;;;;;;;25.00;21.00;;;;;;;;6471063;39;9076;-62
2023/05/10 04:12:35;;;;;;;;;23.50;19.25;;;;;;;;6489965;39;8896;-61
2023/05/10 04:18:37;;;;;;;;;21.25;21.25;;;;;;;;6489691;39;8913;-62
2023/05/10 04:24:39;;;;;;;;;23.25;21.50;;;;;;;;6490405;39;8842;-62
2023/05/10 04:30:43;;;;;;;;;17.25;16.75;;;;;;;;6489333;46;8893;-62
2023/05/10 04:36:46;;;;;;;;;20.50;20.00;;;;;;;;6487762;39;8943;-63
2023/05/10 04:42:49;;;;;;;;;26.00;24.25;;;;;;;;6490082;39;8946;-62
2023/05/10 04:48:53;;;;;;;;;25.50;23.25;;;;;;;;6488722;39;8887;-62
2023/05/10 04:54:55;;;;;;;;;15.25;15.25;;;;;;;;8206547;36;8963;-62
2023/05/10 05:01:05;;;;;;;;;16.00;16.00;;;;;;;;6488819;39;8911;-64
2023/05/10 05:07:11;;;;;;;;;22.25;19.50;;;;;;;;6489222;46;8939;-62
2023/05/10 05:13:14;;;;;;;;;20.25;17.75;;;;;;;;6491431;39;8882;-64
2023/05/10 05:19:16;;;;;;;;;17.75;17.75;;;;;;;;6491271;39;8934;-63
2023/05/10 05:25:18;;;;;;;;;19.75;18.25;;;;;;;;6492363;31;8897;-63
2023/05/10 05:31:21;;;;;;;;;19.00;18.25;;;;;;;;6490497;39;9593;-65
2023/05/10 05:37:25;;;;;;;;;21.25;17.25;;;;;;;;6491116;31;8934;-64
2023/05/10 05:43:28;;;;;;;;;18.50;18.50;;;;;;;;6490892;39;9557;-64
2023/05/10 05:49:31;;;;;;;;;18.33;17.67;;;;;;;;6489888;39;8935;-63
2023/05/10 05:55:34;;;;;;;;;22.00;21.00;;;;;;;;6490350;46;8864;-62
2023/05/10 06:01:36;;;;;;;;;16.00;14.67;;;;;;;;6490312;31;8877;-64
2023/05/10 06:07:41;;;;;;;;;18.33;17.67;;;;;;;;6491008;39;8920;-63
2023/05/10 06:13:44;;;;;;;;;23.00;20.33;;;;;;;;6492014;31;8920;-63
2023/05/10 06:19:48;;;;;;;;;23.33;22.00;;;;;;;;6490139;39;9118;-63
2023/05/10 06:25:50;;;;;;;;;23.67;18.33;;;;;;;;6489268;46;8950;-64
2023/05/10 06:31:52;;;;;;;;;23.67;22.00;;;;;;;;6487596;31;8966;-64
2023/05/10 06:37:55;;;;;;;;;15.67;15.67;;;;;;;;6486848;46;8969;-62
2023/05/10 06:43:58;;;;;;;;;33.50;28.00;;;;;;;;6485007;39;8931;-63
2023/05/10 06:50:00;;;;;;;;;34.25;31.75;;;;;;;;6487991;39;8937;-63
2023/05/10 06:56:03;;;;;;;;;47.25;40.25;;;;;;;;6488078;39;9663;-63
2023/05/10 07:02:05;;;;;;;;;38.67;32.33;;;;;;;;6486439;46;8963;-65
2023/05/10 07:08:09;;;;;;;;;33.75;31.75;;;;;;;;6483836;39;8983;-63
2023/05/10 07:14:11;;;;;;;;;56.25;45.25;;;;;;;;6484492;39;8927;-63
2023/05/10 07:20:15;;;;;;;;;14.33;13.67;;;;;;;;6486680;39;8963;-64
2023/05/10 07:26:18;;;;;;;;;51.00;43.75;;;;;;;;6488279;31;9154;-63
2023/05/10 07:32:24;;;;;;;;;55.00;44.25;;;;;;;;6487778;39;9666;-62
2023/05/10 07:38:29;;;;;;;;;81.75;63.00;;;;;;;;6487935;31;8924;-62
2023/05/10 07:44:33;;;;;;;;;71.00;56.75;;;;;;;;6488298;39;9131;-64
2023/05/10 07:50:36;;;;;;;;;37.00;35.00;;;;;;;;6487694;39;8911;-63
2023/05/10 07:56:44;;;;;;;;;39.33;34.00;;;;;;;;6488854;39;8946;-62
2023/05/10 08:02:48;;;;;;;;;24.67;20.67;;;;;;;;6486791;39;8987;-62
2023/05/10 08:08:53;;;;;;;;;17.00;16.00;;;;;;;;6487373;46;8874;-63
2023/05/10 08:14:55;;;;;;;;;26.67;22.33;;;;;;;;6487209;31;8932;-63
